LFLY 211200Z AUTO 36019KT 9999 FEW032 04/M03 Q1030 BECMG 35018G28KT

ElémentsDécodage
LFLY Station météo située sur l'aérodrome de LYON Bron
211200Z émis le 21 du mois à 12h00 UTC
AUTO Bulletin édité par un automate
36019KT vent du 360°, 19 noeuds
9999 visibilité horizontale supérieure à 10 Km
FEW032 nuages rares (1/8 à 2/8) à 3200 pieds
04/M03 température 04°C, point de rosée -03°C
 soit une humidité relative de 60%
Q1030 la pression au niveau de la mer (QNH) est de 1030 hPa
BECMG fluctuation du temps prévue
35018G28KT vent du 350°, moyenne: 18 noeuds, avec rafales à 28 noeuds